createdAt,value
2022-12-22T00:02:35.852Z,31.07
2022-12-22T00:05:22.370Z,30.47
2022-12-22T00:08:09.792Z,30.27
2022-12-22T00:10:55.665Z,31.70
2022-12-22T00:13:41.732Z,32.23
2022-12-22T00:16:27.639Z,30.70
2022-12-22T00:19:13.811Z,29.93
2022-12-22T00:21:59.926Z,30.93
2022-12-22T00:24:47.218Z,30.13
2022-12-22T00:27:33.885Z,32.37
2022-12-22T00:30:19.605Z,29.03
2022-12-22T00:33:05.664Z,29.83
2022-12-22T00:35:52.029Z,30.80
2022-12-22T00:38:38.195Z,31.17
2022-12-22T00:41:25.582Z,32.03
2022-12-22T00:44:11.786Z,31.33
2022-12-22T00:46:58.297Z,29.87
2022-12-22T00:49:44.494Z,31.40
2022-12-22T00:52:30.591Z,32.73
2022-12-22T00:55:17.023Z,31.17
2022-12-22T00:58:04.325Z,31.03
2022-12-22T01:00:53.597Z,30.97
2022-12-22T01:03:39.693Z,30.70
2022-12-22T01:06:25.953Z,31.57
2022-12-22T01:09:11.843Z,30.73
2022-12-22T01:11:57.829Z,30.37
2022-12-22T01:14:45.085Z,30.87
2022-12-22T01:17:31.237Z,31.73
2022-12-22T01:20:17.407Z,31.10
2022-12-22T01:23:03.430Z,31.87
2022-12-22T01:25:49.517Z,31.50
2022-12-22T01:28:35.964Z,30.63
2022-12-22T01:31:28.696Z,31.07
2022-12-22T01:34:14.774Z,31.90
2022-12-22T01:37:01.006Z,32.87
2022-12-22T01:39:46.919Z,32.57
2022-12-22T01:42:32.731Z,32.63
2022-12-22T01:45:20.036Z,33.63
2022-12-22T01:48:08.187Z,32.30
2022-12-22T01:50:54.170Z,31.33
2022-12-22T01:53:40.457Z,33.00
2022-12-22T01:56:26.710Z,31.60
2022-12-22T01:59:14.311Z,32.83
2022-12-22T02:02:00.382Z,31.53
2022-12-22T02:04:50.419Z,34.27
2022-12-22T02:07:39.401Z,33.10
2022-12-22T02:10:28.482Z,33.50
2022-12-22T02:13:17.026Z,33.67
2022-12-22T02:16:05.327Z,31.70
2022-12-22T02:18:51.348Z,32.63
2022-12-22T02:21:39.760Z,32.20
2022-12-22T02:24:28.360Z,32.47
2022-12-22T02:27:16.079Z,32.13
2022-12-22T02:30:02.640Z,33.37
2022-12-22T02:32:52.164Z,32.03
2022-12-22T02:35:38.252Z,32.03
2022-12-22T02:38:26.491Z,34.13
2022-12-22T02:41:14.784Z,32.80
2022-12-22T02:44:06.446Z,32.97
2022-12-22T02:46:57.195Z,31.60
2022-12-22T02:49:43.907Z,31.97
2022-12-22T02:52:32.133Z,32.30
2022-12-22T02:55:17.998Z,33.20
2022-12-22T02:58:04.028Z,31.23
2022-12-22T03:00:51.541Z,32.80
2022-12-22T03:03:37.903Z,32.60
2022-12-22T03:06:24.304Z,32.77
2022-12-22T03:09:10.355Z,31.23
2022-12-22T03:11:56.358Z,31.63
2022-12-22T03:14:42.483Z,31.17
2022-12-22T03:17:29.995Z,31.17
2022-12-22T03:20:16.134Z,30.20
2022-12-22T03:23:02.353Z,31.23
2022-12-22T03:25:48.429Z,31.40
2022-12-22T03:28:16.790Z,30.37
2022-12-22T03:30:45.251Z,30.93
2022-12-22T03:33:15.018Z,30.00
2022-12-22T03:35:43.487Z,30.20
2022-12-22T03:38:14.743Z,32.00
2022-12-22T03:40:44.606Z,31.57
2022-12-22T03:43:31.263Z,31.43
2022-12-22T03:46:17.383Z,33.40
2022-12-22T03:49:07.560Z,31.93
2022-12-22T03:51:36.039Z,31.40
2022-12-22T03:54:04.416Z,30.80
2022-12-22T03:56:32.831Z,30.87
2022-12-22T03:59:01.185Z,32.00
2022-12-22T04:01:29.920Z,33.53
2022-12-22T04:03:59.745Z,31.53
2022-12-22T04:06:28.093Z,30.67
2022-12-22T04:08:56.466Z,30.10
2022-12-22T04:11:42.341Z,27.17
2022-12-22T04:14:10.680Z,25.57
2022-12-22T04:16:39.059Z,26.83
2022-12-22T04:19:10.487Z,27.20
2022-12-22T04:21:39.000Z,24.70
2022-12-22T04:24:07.882Z,25.43
2022-12-22T04:26:36.255Z,26.97
2022-12-22T04:29:04.695Z,26.40
2022-12-22T04:31:34.273Z,25.57
2022-12-22T04:34:02.698Z,23.83
2022-12-22T04:36:32.372Z,25.37
2022-12-22T04:39:01.043Z,22.47
2022-12-22T04:41:29.484Z,21.80
2022-12-22T04:43:57.907Z,21.20
2022-12-22T04:46:26.534Z,19.33
2022-12-22T04:48:59.978Z,18.77
2022-12-22T04:51:28.884Z,18.57
2022-12-22T04:53:58.669Z,18.93
2022-12-22T04:56:27.081Z,17.03
2022-12-22T04:58:55.470Z,17.20
2022-12-22T05:01:24.023Z,16.53
2022-12-22T05:03:52.673Z,15.30
2022-12-22T05:06:21.180Z,15.30
2022-12-22T05:08:49.539Z,16.13
2022-12-22T05:11:19.379Z,17.10
2022-12-22T05:13:47.752Z,17.20
2022-12-22T05:16:16.999Z,17.10
2022-12-22T05:18:46.069Z,16.73
2022-12-22T05:21:15.002Z,15.87
2022-12-22T05:23:43.384Z,14.43
2022-12-22T05:26:12.016Z,14.87
2022-12-22T05:28:41.754Z,14.97
2022-12-22T05:31:10.607Z,14.80
2022-12-22T05:33:38.974Z,15.13
2022-12-22T05:36:07.638Z,14.10
2022-12-22T05:38:36.002Z,14.70
2022-12-22T05:41:05.023Z,13.63
2022-12-22T05:43:33.554Z,13.53
2022-12-22T05:46:04.810Z,13.10
2022-12-22T05:48:37.851Z,12.00
2022-12-22T05:51:07.411Z,12.93
2022-12-22T05:53:35.994Z,13.03
2022-12-22T05:56:04.508Z,15.33
2022-12-22T05:58:32.981Z,13.17
2022-12-22T06:01:01.574Z,13.40
2022-12-22T06:03:31.642Z,13.17
2022-12-22T06:06:00.618Z,12.10
2022-12-22T06:08:29.001Z,12.47
2022-12-22T06:10:57.432Z,12.90
2022-12-22T06:13:26.075Z,12.43
2022-12-22T06:15:54.431Z,13.40
2022-12-22T06:18:22.907Z,13.53
2022-12-22T06:20:54.442Z,12.40
2022-12-22T06:23:22.938Z,17.37
2022-12-22T06:25:57.414Z,17.73
2022-12-22T06:28:25.964Z,13.67
2022-12-22T06:30:54.573Z,13.73
2022-12-22T06:33:23.263Z,12.87
2022-12-22T06:35:57.930Z,13.83
2022-12-22T06:38:29.240Z,12.47
2022-12-22T06:40:57.616Z,13.30
2022-12-22T06:43:24.980Z,13.73
2022-12-22T06:45:53.530Z,13.13
2022-12-22T06:48:22.099Z,12.43
2022-12-22T06:50:50.453Z,13.57
2022-12-22T06:53:18.897Z,13.07
2022-12-22T06:55:48.707Z,13.10
2022-12-22T06:58:17.198Z,13.70
2022-12-22T07:00:48.656Z,13.43
2022-12-22T07:03:17.684Z,13.17
2022-12-22T07:05:46.124Z,13.63
2022-12-22T07:08:14.558Z,13.50
2022-12-22T07:11:01.217Z,12.40
2022-12-22T07:13:32.710Z,11.73
2022-12-22T07:16:02.109Z,11.93
2022-12-22T07:18:31.177Z,10.93
2022-12-22T07:21:00.787Z,11.57
2022-12-22T07:23:29.215Z,11.50
2022-12-22T07:25:57.648Z,12.17
2022-12-22T07:28:26.087Z,11.57
2022-12-22T07:30:56.015Z,12.90
2022-12-22T07:33:24.481Z,13.17
2022-12-22T07:36:02.537Z,13.47
2022-12-22T07:38:30.945Z,14.70
2022-12-22T07:41:04.981Z,17.73
2022-12-22T07:43:32.990Z,17.37
2022-12-22T07:46:02.877Z,17.90
2022-12-22T07:48:49.065Z,18.40
2022-12-22T07:51:17.446Z,18.17
2022-12-22T07:53:45.992Z,18.10
2022-12-22T07:56:14.513Z,18.67
2022-12-22T07:58:43.792Z,18.47
2022-12-22T08:01:13.844Z,17.30
2022-12-22T08:03:42.442Z,17.83
2022-12-22T08:06:10.933Z,15.30
2022-12-22T08:08:39.302Z,14.17
2022-12-22T08:11:07.925Z,13.23
2022-12-22T08:13:36.399Z,11.60
2022-12-22T08:16:05.709Z,10.83
2022-12-22T08:18:35.628Z,10.13
2022-12-22T08:21:04.602Z,9.30
2022-12-22T08:23:33.596Z,8.93
2022-12-22T08:26:04.026Z,8.43
2022-12-22T08:28:33.513Z,9.17
2022-12-22T08:31:02.156Z,8.50
2022-12-22T08:33:30.695Z,7.87
2022-12-22T08:36:07.456Z,8.20
2022-12-22T08:38:36.709Z,8.33
2022-12-22T08:41:05.431Z,8.80
2022-12-22T08:43:33.890Z,8.77
2022-12-22T08:46:02.297Z,8.70
2022-12-22T08:48:30.685Z,8.63
2022-12-22T08:51:00.548Z,8.10
2022-12-22T08:56:20.874Z,9.40
2022-12-22T08:58:49.391Z,9.10
2022-12-22T09:01:19.077Z,9.77
2022-12-22T09:03:52.370Z,9.60
2022-12-22T09:06:27.312Z,9.83
2022-12-22T09:08:58.860Z,10.83
2022-12-22T09:11:27.373Z,9.50
2022-12-22T09:13:56.748Z,10.27
2022-12-22T09:16:25.830Z,10.73
2022-12-22T09:18:54.376Z,10.23
2022-12-22T09:21:24.590Z,10.77
2022-12-22T09:23:54.322Z,10.57
2022-12-22T09:26:23.258Z,9.93
2022-12-22T09:28:51.935Z,9.87
2022-12-22T09:31:20.466Z,9.53
2022-12-22T09:33:49.000Z,9.60
2022-12-22T09:36:18.600Z,10.17
2022-12-22T09:38:48.517Z,10.53
2022-12-22T09:41:17.581Z,10.30
2022-12-22T09:43:46.112Z,10.33
2022-12-22T09:46:16.495Z,8.97
2022-12-22T09:48:44.949Z,8.63
2022-12-22T09:51:13.496Z,8.80
2022-12-22T09:53:41.944Z,8.60
2022-12-22T09:56:12.975Z,7.90
2022-12-22T09:58:41.752Z,7.37
2022-12-22T10:01:11.355Z,7.27
2022-12-22T10:03:43.061Z,6.63
2022-12-22T10:06:12.881Z,6.83
2022-12-22T10:08:42.070Z,6.87
2022-12-22T10:11:15.294Z,7.27
2022-12-22T10:13:43.831Z,7.27
2022-12-22T10:16:20.029Z,7.30
2022-12-22T10:18:56.461Z,8.00
2022-12-22T10:21:26.474Z,7.40
2022-12-22T10:23:57.768Z,6.73
2022-12-22T10:26:30.384Z,7.00
2022-12-22T10:29:03.215Z,7.00
2022-12-22T10:31:35.142Z,7.40
2022-12-22T10:34:12.004Z,7.83
2022-12-22T10:36:40.585Z,8.30
2022-12-22T10:39:09.513Z,7.63
2022-12-22T10:41:40.012Z,9.63
2022-12-22T10:44:09.077Z,10.37
2022-12-22T10:46:41.604Z,11.40
2022-12-22T10:49:20.101Z,11.00
2022-12-22T10:51:49.262Z,11.67
2022-12-22T10:54:30.870Z,11.47
2022-12-22T10:57:05.360Z,10.97
2022-12-22T10:59:34.067Z,11.43
2022-12-22T11:02:29.686Z,12.07
2022-12-22T11:05:02.793Z,11.67
2022-12-22T11:07:32.484Z,12.33
2022-12-22T11:10:00.949Z,12.57
2022-12-22T11:12:33.080Z,11.93
2022-12-22T11:15:02.880Z,13.40
2022-12-22T11:17:32.967Z,13.87
2022-12-22T11:20:05.367Z,13.43
2022-12-22T11:22:36.676Z,13.17
2022-12-22T11:25:12.066Z,13.53
2022-12-22T11:27:46.208Z,14.43
2022-12-22T11:30:28.895Z,14.23
2022-12-22T11:33:03.169Z,14.43
2022-12-22T11:35:40.412Z,14.57
2022-12-22T11:38:11.790Z,14.53
2022-12-22T11:40:42.753Z,13.17
2022-12-22T11:43:17.288Z,13.87
2022-12-22T11:45:49.301Z,12.77
2022-12-22T11:48:25.599Z,14.07
2022-12-22T11:50:58.746Z,13.70
2022-12-22T11:53:39.240Z,14.33
2022-12-22T11:56:11.756Z,15.23
2022-12-22T11:58:45.226Z,15.40
2022-12-22T12:01:24.173Z,15.50
2022-12-22T12:04:10.624Z,17.47
2022-12-22T12:06:49.384Z,16.73
2022-12-22T12:09:21.530Z,18.50
2022-12-22T12:11:51.966Z,19.33
2022-12-22T12:14:23.892Z,20.13
2022-12-22T12:16:53.885Z,21.30
2022-12-22T12:19:28.910Z,20.87
2022-12-22T12:21:59.436Z,21.67
2022-12-22T12:24:35.413Z,22.03
2022-12-22T12:27:05.006Z,22.07
2022-12-22T12:29:37.181Z,22.43
2022-12-22T12:32:16.765Z,22.17
2022-12-22T12:34:45.623Z,22.63
2022-12-22T12:37:16.584Z,22.80
2022-12-22T12:39:48.849Z,23.57
2022-12-22T12:42:19.805Z,23.70
2022-12-22T12:44:52.437Z,24.87
2022-12-22T12:47:24.693Z,23.57
2022-12-22T12:50:08.078Z,24.33
2022-12-22T12:52:55.126Z,25.30
2022-12-22T12:55:31.672Z,24.83
2022-12-22T12:58:01.177Z,24.13
2022-12-22T13:00:58.668Z,25.40
2022-12-22T13:06:56.950Z,24.83
2022-12-22T13:12:43.965Z,26.87
2022-12-22T13:15:27.189Z,25.97
2022-12-22T13:17:55.727Z,26.20
2022-12-22T13:20:26.919Z,26.30
2022-12-22T13:22:56.135Z,27.43
2022-12-22T13:25:27.654Z,28.00
2022-12-22T13:27:56.959Z,26.83
2022-12-22T13:30:25.406Z,26.60
2022-12-22T13:32:54.213Z,27.37
2022-12-22T13:35:32.642Z,26.17
2022-12-22T13:38:03.985Z,26.73
2022-12-22T13:40:42.028Z,25.97
2022-12-22T13:43:12.071Z,26.20
2022-12-22T13:45:40.696Z,26.67
2022-12-22T13:48:14.373Z,26.17
2022-12-22T13:50:44.466Z,24.87
2022-12-22T13:53:34.434Z,25.53
2022-12-22T13:56:07.390Z,25.37
2022-12-22T13:58:38.072Z,24.27
2022-12-22T14:01:24.554Z,24.40
2022-12-22T14:04:00.863Z,23.73
2022-12-22T14:06:30.980Z,22.80
2022-12-22T14:09:13.208Z,23.30
2022-12-22T14:11:45.666Z,23.20
2022-12-22T14:14:19.940Z,23.83
2022-12-22T14:16:48.916Z,22.23
2022-12-22T14:19:17.411Z,22.90
2022-12-22T14:21:45.801Z,23.57
2022-12-22T14:24:16.305Z,23.20
2022-12-22T14:26:44.963Z,21.80
2022-12-22T14:29:13.947Z,24.33
2022-12-22T14:31:52.905Z,22.87
2022-12-22T14:34:27.875Z,24.13
2022-12-22T14:36:58.690Z,23.57
2022-12-22T14:39:30.869Z,22.30
2022-12-22T14:42:00.437Z,25.43
2022-12-22T14:44:33.055Z,21.30
2022-12-22T14:47:15.975Z,20.90
2022-12-22T14:49:49.733Z,20.00
2022-12-22T14:52:20.720Z,21.10
2022-12-22T14:54:50.645Z,21.03
2022-12-22T14:57:19.565Z,20.87
2022-12-22T14:59:59.664Z,20.63
2022-12-22T15:02:33.519Z,21.47
2022-12-22T15:05:08.973Z,22.00
2022-12-22T15:10:37.945Z,23.87
2022-12-22T15:13:07.308Z,22.37
2022-12-22T15:15:38.625Z,24.00
2022-12-22T15:18:07.337Z,24.63
2022-12-22T15:20:39.596Z,22.80
2022-12-22T15:23:11.696Z,23.33
2022-12-22T15:25:41.564Z,24.90
2022-12-22T15:28:09.983Z,21.93
2022-12-22T15:30:38.556Z,21.80
2022-12-22T15:33:06.939Z,19.93
2022-12-22T15:35:35.612Z,20.50
2022-12-22T15:38:04.256Z,21.90
2022-12-22T15:40:32.697Z,22.27
2022-12-22T15:43:02.384Z,19.20
2022-12-22T15:45:41.027Z,20.37
2022-12-22T15:48:16.073Z,20.60
2022-12-22T15:50:44.460Z,19.40
2022-12-22T15:53:14.399Z,19.37
2022-12-22T15:55:43.215Z,18.53
2022-12-22T15:58:22.309Z,19.27
2022-12-22T16:00:50.690Z,18.37
2022-12-22T16:03:19.146Z,18.97
2022-12-22T16:05:47.539Z,19.13
2022-12-22T16:08:18.343Z,19.43
2022-12-22T16:10:46.949Z,19.90
2022-12-22T16:13:27.408Z,20.23
2022-12-22T16:15:57.403Z,21.47
2022-12-22T16:18:25.857Z,20.37
2022-12-22T16:20:54.334Z,24.33
2022-12-22T16:23:23.072Z,21.90
2022-12-22T16:25:55.441Z,21.70
2022-12-22T16:28:38.248Z,22.23
2022-12-22T16:31:08.502Z,22.20
2022-12-22T16:33:37.568Z,22.60
2022-12-22T16:36:09.343Z,21.73
2022-12-22T16:38:37.717Z,20.37
2022-12-22T16:41:09.200Z,20.37
2022-12-22T16:46:26.129Z,20.13
2022-12-22T16:48:54.737Z,18.53
2022-12-22T16:51:23.584Z,18.47
2022-12-22T16:53:51.922Z,18.30
2022-12-22T16:56:20.676Z,19.00
2022-12-22T16:58:50.360Z,17.77
2022-12-22T17:01:22.639Z,15.70
2022-12-22T17:03:52.090Z,16.67
2022-12-22T17:06:20.584Z,15.83
2022-12-22T17:08:48.885Z,16.37
2022-12-22T17:11:19.177Z,16.53
2022-12-22T17:13:47.620Z,18.07
2022-12-22T17:16:21.009Z,17.10
2022-12-22T17:18:49.516Z,18.70
2022-12-22T17:21:18.123Z,17.70
2022-12-22T17:23:47.327Z,18.57
2022-12-22T17:26:15.877Z,20.40
2022-12-22T17:28:44.276Z,19.83
2022-12-22T17:31:14.832Z,19.83
2022-12-22T17:33:44.587Z,18.43
2022-12-22T17:36:23.952Z,16.20
2022-12-22T17:38:52.309Z,17.20
2022-12-22T17:41:20.630Z,18.33
2022-12-22T17:43:49.068Z,17.77
2022-12-22T17:46:17.654Z,17.33
2022-12-22T17:48:47.528Z,19.27
2022-12-22T17:51:19.586Z,19.00
2022-12-22T17:53:48.003Z,18.10
2022-12-22T17:56:17.329Z,20.83
2022-12-22T17:58:45.871Z,20.13
2022-12-22T18:01:21.214Z,19.47
2022-12-22T18:03:51.080Z,18.83
2022-12-22T18:06:19.800Z,18.53
2022-12-22T18:08:48.122Z,18.83
2022-12-22T18:11:16.450Z,17.73
2022-12-22T18:13:44.906Z,17.33
2022-12-22T18:16:15.023Z,16.27
2022-12-22T18:18:43.766Z,15.70
2022-12-22T18:21:23.230Z,15.53
2022-12-22T18:23:51.690Z,15.10
2022-12-22T18:26:21.809Z,13.80
2022-12-22T18:28:50.363Z,14.17
2022-12-22T18:31:18.897Z,14.90
2022-12-22T18:33:47.268Z,14.77
2022-12-22T18:36:19.244Z,15.40
2022-12-22T18:38:49.095Z,15.03
2022-12-22T18:41:18.345Z,15.30
2022-12-22T18:43:46.665Z,15.33
2022-12-22T18:46:15.163Z,16.20
2022-12-22T18:48:43.956Z,14.87
2022-12-22T18:51:16.542Z,14.67
2022-12-22T18:53:44.970Z,14.57
2022-12-22T18:56:14.720Z,13.60
2022-12-22T18:58:43.219Z,14.27
2022-12-22T19:01:15.356Z,11.50
2022-12-22T19:03:45.608Z,11.67
2022-12-22T19:06:14.081Z,9.47
2022-12-22T19:08:45.956Z,8.97
2022-12-22T19:11:16.149Z,8.07
2022-12-22T19:13:44.710Z,8.40
2022-12-22T19:16:14.066Z,7.00
2022-12-22T19:18:42.442Z,7.80
2022-12-22T19:21:11.981Z,7.97
2022-12-22T19:23:40.398Z,7.10
2022-12-22T19:26:09.549Z,7.50
2022-12-22T19:28:39.890Z,7.17
2022-12-22T19:31:08.654Z,7.10
2022-12-22T19:33:37.329Z,6.80
2022-12-22T19:36:05.851Z,6.77
2022-12-22T19:38:35.577Z,6.90
2022-12-22T19:41:04.537Z,7.33
2022-12-22T19:43:33.560Z,7.23
2022-12-22T19:46:05.697Z,7.47
2022-12-22T19:48:34.018Z,6.73
2022-12-22T19:51:02.367Z,7.63
2022-12-22T19:53:30.741Z,7.33
2022-12-22T19:55:59.213Z,7.20
2022-12-22T19:58:28.256Z,7.60
2022-12-22T20:00:56.814Z,7.80
2022-12-22T20:03:27.056Z,7.03
2022-12-22T20:05:55.470Z,7.10
2022-12-22T20:08:23.812Z,6.23
2022-12-22T20:10:58.311Z,5.33
2022-12-22T20:13:26.958Z,5.90
2022-12-22T20:15:55.407Z,4.60
2022-12-22T20:18:24.065Z,4.33
2022-12-22T20:20:57.533Z,5.57
2022-12-22T20:23:26.202Z,4.77
2022-12-22T20:25:56.193Z,5.33
2022-12-22T20:28:24.874Z,6.37
2022-12-22T20:30:53.493Z,10.00
2022-12-22T20:33:22.094Z,12.43
2022-12-22T20:35:50.631Z,11.83
2022-12-22T20:38:21.020Z,11.27
2022-12-22T20:40:49.507Z,10.40
2022-12-22T20:43:18.427Z,10.50
2022-12-22T20:45:47.507Z,10.30
2022-12-22T20:48:24.125Z,10.00
2022-12-22T20:50:52.462Z,9.97
2022-12-22T20:53:22.481Z,9.57
2022-12-22T20:55:50.787Z,10.83
2022-12-22T20:58:20.104Z,10.73
2022-12-22T21:00:48.403Z,12.00
2022-12-22T21:03:16.956Z,11.73
2022-12-22T21:05:45.716Z,11.93
2022-12-22T21:08:20.215Z,11.23
2022-12-22T21:10:50.558Z,10.67
2022-12-22T21:13:18.984Z,11.77
2022-12-22T21:15:47.880Z,10.00
2022-12-22T21:18:17.497Z,11.10
2022-12-22T21:20:45.841Z,12.73
2022-12-22T21:23:16.389Z,14.23
2022-12-22T21:25:46.647Z,14.97
2022-12-22T21:28:17.521Z,14.20
2022-12-22T21:30:46.237Z,13.97
2022-12-22T21:33:14.718Z,14.60
2022-12-22T21:35:43.072Z,14.80
2022-12-22T21:38:12.361Z,14.03
2022-12-22T21:40:40.784Z,14.37
2022-12-22T21:43:10.033Z,15.90
2022-12-22T21:45:42.969Z,14.43
2022-12-22T21:48:12.843Z,13.93
2022-12-22T21:50:41.315Z,14.00
2022-12-22T21:53:09.678Z,14.37
2022-12-22T21:55:38.371Z,14.13
2022-12-22T21:58:07.572Z,14.23
2022-12-22T22:00:36.137Z,13.27
2022-12-22T22:03:06.162Z,13.67
2022-12-22T22:05:35.261Z,12.90
2022-12-22T22:08:04.002Z,12.33
2022-12-22T22:10:32.694Z,13.00
2022-12-22T22:13:01.135Z,12.57
2022-12-22T22:15:30.033Z,13.87
2022-12-22T22:18:02.934Z,13.03
2022-12-22T22:20:36.604Z,12.10
2022-12-22T22:23:05.143Z,12.93
2022-12-22T22:25:33.629Z,13.07
2022-12-22T22:28:01.871Z,13.17
2022-12-22T22:30:30.183Z,13.53
2022-12-22T22:32:58.607Z,13.67
2022-12-22T22:35:29.571Z,12.67
2022-12-22T22:37:59.251Z,11.37
2022-12-22T22:40:27.615Z,12.17
2022-12-22T22:42:56.906Z,10.10
2022-12-22T22:45:25.426Z,10.43
2022-12-22T22:47:53.850Z,9.17
2022-12-22T22:50:22.509Z,9.67
2022-12-22T22:52:50.862Z,9.60
2022-12-22T22:55:20.709Z,8.73
2022-12-22T22:57:49.093Z,9.07
2022-12-22T23:00:18.036Z,10.17
2022-12-22T23:02:46.592Z,9.67
2022-12-22T23:05:20.693Z,9.63
2022-12-22T23:07:51.708Z,11.90
2022-12-22T23:10:21.489Z,13.63
2022-12-22T23:12:49.786Z,15.83
2022-12-22T23:15:19.193Z,16.80
2022-12-22T23:17:47.793Z,16.20
2022-12-22T23:20:16.150Z,17.00
2022-12-22T23:22:44.792Z,17.67
2022-12-22T23:25:13.590Z,16.27
2022-12-22T23:27:43.257Z,16.70
2022-12-22T23:30:12.078Z,15.73
2022-12-22T23:32:40.478Z,15.30
2022-12-22T23:35:09.029Z,17.60
2022-12-22T23:37:37.386Z,19.07
2022-12-22T23:40:49.890Z,19.53
2022-12-22T23:42:58.950Z,23.70
2022-12-22T23:45:29.624Z,21.63
2022-12-22T23:47:58.087Z,22.43
2022-12-22T23:50:26.587Z,21.13
2022-12-22T23:52:55.170Z,19.93
2022-12-22T23:55:23.547Z,21.57
2022-12-22T23:57:52.301Z,21.37
